Latest Weather Observations for Lismore Airport

IDN60801

Issued at 7:32 pm EST Sunday 20 August 2017 (issued every 30 minutes, with the page automatically refreshed every 10 minutes)

About weather observations | Map of weather stations | Latest weather observations for NSW | Other Formats
Station Details ID: 058214 Name: LISMORE AIRPORT AWS Lat: -28.83 Lon: 153.26 Height: 9.21 m
Data from the previous 72 hours. | See also: Recent months at Lismore Airport
Date/Time
EST
Temp
°C
App
Temp
°C
Dew
Point
°C
Rel
Hum
%
Delta-T
°C
Wind Press
QNH
hPa
Press
MSL
hPa
Rain since
9am
mm
Dir  Spd
km/h
Gust
km/h
Spd
kts
Gust
kts
20/07:30pm 8.5 7.2 3.9 73 2.0 CALM 0 0 0 0 1020.5 1020.5 0.0
20/07:00pm 10.9 10.0 5.9 71 2.3 CALM 0 0 0 0 1020.4 1020.4 0.0
20/06:30pm 11.6 9.2 5.3 65 2.9 S 7 9 4 5 1020.1 1020.1 0.0
20/06:00pm 13.0 10.3 5.7 61 3.4 S 9 11 5 6 1019.8 1019.8 0.0
20/05:30pm 14.7 11.3 6.0 56 4.2 SSE 13 17 7 9 1019.5 1019.5 0.0
20/05:00pm 16.3 11.8 6.2 51 4.9 SSE 19 26 10 14 1019.1 1019.1 0.0
20/04:30pm 16.5 12.4 6.3 51 5.0 SSE 17 22 9 12 1018.8 1018.8 0.0
20/04:00pm 17.3 12.6 6.2 48 5.4 SE 20 26 11 14 1018.5 1018.5 0.0
20/03:30pm 17.7 13.9 5.9 46 5.8 SE 15 24 8 13 1018.2 1018.2 0.0
20/03:00pm 18.5 14.9 5.0 41 6.5 SSE 13 20 7 11 1018.1 1018.1 0.0
20/02:30pm 19.6 16.1 5.6 40 6.9 SSE 13 22 7 12 1017.9 1017.9 0.0
20/02:00pm 19.4 14.6 4.7 38 7.1 S 19 26 10 14 1018.0 1018.0 0.0
20/01:30pm 18.7 14.7 2.9 35 7.3 SSW 13 24 7 13 1018.5 1018.5 0.0
20/01:00pm 18.9 14.7 3.9 37 7.1 SSW 15 26 8 14 1018.8 1018.8 0.0
20/12:30pm 18.7 13.1 3.7 37 7.1 SW 22 33 12 18 1019.1 1019.1 0.0
20/12:00pm 17.5 12.3 2.7 37 6.7 SSW 19 28 10 15 1019.5 1019.5 0.0
20/11:30am 17.8 12.6 3.3 38 6.7 S 20 35 11 19 1020.1 1020.1 0.0
20/11:00am 17.2 10.7 2.8 38 6.6 S 26 37 14 20 1020.6 1020.6 0.0
20/10:30am 16.1 9.1 2.2 39 6.2 SSW 28 39 15 21 1020.9 1020.9 0.0
20/10:00am 15.8 9.2 1.9 39 6.1 SSW 26 35 14 19 1021.0 1021.0 0.0
20/09:30am 15.1 9.3 0.2 36 6.3 SW 20 33 11 18 1021.1 1021.1 0.0
20/09:00am 14.8 9.5 -0.9 34 6.5 SW 17 24 9 13 1021.3 1021.3 0.0
20/08:30am 13.4 8.0 -1.0 37 5.9 WSW 17 26 9 14 1021.1 1021.1 0.0
20/08:00am 11.5 8.5 0.6 47 4.5 NE 6 7 3 4 1020.8 1020.8 0.0
20/07:30am 8.0 4.9 1.2 62 2.8 NE 7 9 4 5 1020.7 1020.7 0.0
20/07:00am 5.7 1.9 -0.4 65 2.3 NNE 9 11 5 6 1020.3 1020.3 0.0
20/06:30am 3.5 -0.4 -1.8 68 1.9 NNE 9 9 5 5 1019.9 1019.9 0.0
20/06:00am 4.8 1.3 -1.2 65 2.2 NE 7 9 4 5 1019.5 1019.5 0.0
20/05:30am 5.3 2.8 -1.2 63 2.4 E 2 7 1 4 1019.0 1019.0 0.0
20/05:00am 4.5 1.9 -1.7 64 2.2 SW 2 7 1 4 1018.8 1018.8 0.0
20/04:30am 6.4 1.7 -1.7 56 3.0 SW 13 17 7 9 1018.4 1018.4 0.0
20/04:00am 4.8 0.9 -1.8 62 2.4 SSW 9 13 5 7 1018.1 1018.1 0.0
20/03:30am 3.7 0.9 -0.7 73 1.6 SE 4 9 2 5 1018.0 1018.0 0.0
20/03:00am 4.2 0.3 -1.6 66 2.1 SSE 9 13 5 7 1017.9 1017.9 0.0
20/02:30am 4.9 0.6 -1.8 62 2.4 SE 11 13 6 7 1017.9 1017.9 0.0
20/02:00am 7.0 2.3 -1.9 53 3.3 SE 13 15 7 8 1018.0 1018.0 0.0
20/01:30am 8.5 3.8 -1.9 48 3.9 SSE 13 20 7 11 1017.9 1017.9 0.0
20/01:00am 10.3 4.7 -3.0 39 5.0 WSW 17 22 9 12 1017.9 1017.9 0.0
20/12:30am 10.4 4.4 -2.9 39 5.0 WSW 19 24 10 13 1018.0 1018.0 0.0
20/12:00am 9.9 3.9 -3.0 40 4.8 WSW 19 22 10 12 1018.0 1018.0 0.0
 
Date/Time
EST
Temp
°C
App
Temp
°C
Dew
Point
°C
Rel
Hum
%
Delta-T
°C
Wind Press
QNH
hPa
Press
MSL
hPa
Rain since
9am
mm
Dir  Spd
km/h
Gust
km/h
Spd
kts
Gust
kts
19/11:30pm 9.7 4.9 -2.6 42 4.6 SW 13 17 7 9 1018.2 1018.2 0.0
19/11:00pm 9.5 4.4 -2.1 44 4.4 SW 15 19 8 10 1018.1 1018.1 0.0
19/10:30pm 6.5 3.0 1.0 68 2.2 SSE 9 11 5 6 1018.1 1018.1 0.0
19/10:00pm 5.3 3.4 0.3 70 1.9 CALM 0 4 0 2 1017.9 1017.9 0.0
19/09:30pm 7.0 4.0 -1.7 54 3.2 E 4 7 2 4 1017.8 1017.8 0.0
19/09:00pm 9.5 7.1 -3.4 40 4.7 CALM 0 0 0 0 1017.7 1017.7 0.0
19/08:30pm 8.4 4.6 -3.4 43 4.3 SW 7 7 4 4 1017.5 1017.5 0.0
19/08:00pm 8.6 6.1 -3.6 42 4.4 CALM 0 0 0 0 1017.2 1017.2 0.0
19/07:30pm 9.0 4.8 -3.9 40 4.7 SW 9 13 5 7 1016.8 1016.8 0.0
19/07:00pm 12.5 8.6 -4.6 30 6.3 SSE 7 13 4 7 1016.4 1016.4 0.0
19/06:30pm 12.6 7.5 -5.4 28 6.6 WSW 13 15 7 8 1015.8 1015.8 0.0
19/06:00pm 13.6 8.1 -5.5 26 7.0 SSW 15 22 8 12 1015.2 1015.2 0.0
19/05:30pm 14.4 8.8 -5.9 24 7.5 SSW 15 20 8 11 1014.6 1014.6 0.0
19/05:00pm 16.8 10.2 -6.9 19 8.8 SSW 20 32 11 17 1013.9 1013.9 0.0
19/04:30pm 17.9 10.6 -6.7 18 9.3 SSW 24 32 13 17 1013.3 1013.3 0.0
19/04:00pm 19.0 11.2 -7.4 16 9.9 SSW 26 37 14 20 1012.8 1012.8 0.0
19/03:30pm 19.7 12.3 -7.6 15 10.3 SW 24 39 13 21 1012.4 1012.4 0.0
19/03:00pm 20.1 11.4 -9.1 13 10.7 SW 30 43 16 23 1012.2 1012.2 0.0
19/02:34pm 20.5 11.8 -9.8 12 11.0 SW 30 48 16 26 1012.0 1012.0 0.0
19/02:30pm 21.1 12.0 -9.4 12 11.3 SW 32 48 17 26 1012.0 1012.0 0.0
19/02:22pm 20.5 11.3 -10.9 11 11.2 WSW 32 48 17 26 1011.9 1011.9 0.0
19/02:21pm 20.8 12.1 -9.6 12 11.2 WSW 30 48 16 26 1011.9 1011.9 0.0
19/02:00pm 20.6 11.5 -9.8 12 11.1 SW 32 46 17 25 1012.0 1012.0 0.0
19/01:49pm 20.5 11.4 -9.8 12 11.0 WSW 32 50 17 27 1012.0 1012.0 0.0
19/01:30pm 20.6 10.6 -8.7 13 10.9 WSW 37 57 20 31 1012.2 1012.2 0.0
19/01:12pm 20.3 11.1 -9.0 13 10.8 SW 33 52 18 28 1012.1 1012.1 0.0
19/01:00pm 20.4 10.9 -8.0 14 10.7 WSW 35 52 19 28 1012.4 1012.4 0.0
19/12:30pm 19.7 11.5 -7.6 15 10.3 WSW 28 48 15 26 1012.6 1012.6 0.0
19/12:28pm 20.2 12.1 -6.4 16 10.3 WSW 28 48 15 26 1012.6 1012.6 0.0
19/12:00pm 19.2 10.9 -5.0 19 9.6 WSW 30 43 16 23 1013.3 1013.3 0.0
19/11:30am 19.1 10.9 -3.7 21 9.3 SW 30 43 16 23 1013.8 1013.8 0.0
19/11:00am 18.0 9.9 -2.8 24 8.5 WSW 30 44 16 24 1014.3 1014.3 0.0
19/10:30am 17.3 8.8 -2.9 25 8.2 WSW 32 50 17 27 1014.9 1014.9 0.0
19/10:11am 16.6 7.5 -3.5 25 8.0 WSW 35 54 19 29 1015.0 1015.0 0.0
19/10:00am 16.4 7.9 -3.1 26 7.8 WSW 32 44 17 24 1015.2 1015.2 0.0
19/09:30am 15.5 7.0 -2.0 30 7.1 WSW 33 50 18 27 1015.4 1015.4 0.0
19/09:03am 14.9 6.0 -2.1 31 6.8 W 35 54 19 29 1015.4 1015.4 0.0
19/09:00am 14.9 6.0 -2.1 31 6.8 W 35 46 19 25 1015.4 1015.4 0.0
19/08:30am 14.3 6.0 -1.7 33 6.5 W 32 43 17 23 1015.4 1015.4 0.0
19/08:00am 13.6 6.9 -1.2 36 6.0 W 24 33 13 18 1015.7 1015.7 0.0
19/07:30am 12.8 6.0 -1.9 36 5.8 WNW 24 32 13 17 1015.6 1015.6 0.0
19/07:00am 11.8 5.4 -2.0 38 5.4 W 22 33 12 18 1015.4 1015.4 0.0
19/06:30am 11.6 4.3 -2.6 37 5.5 WNW 26 35 14 19 1015.0 1015.0 0.0
19/06:00am 11.7 4.0 -2.9 36 5.6 WNW 28 37 15 20 1014.6 1014.6 0.0
19/05:30am 12.4 4.7 -2.6 35 5.8 WNW 28 39 15 21 1014.3 1014.3 0.0
19/05:00am 12.0 5.1 -3.0 35 5.7 W 24 33 13 18 1014.3 1014.3 0.0
19/04:30am 12.6 4.5 -3.2 33 6.1 W 30 44 16 24 1014.0 1014.0 0.0
19/04:00am 12.9 5.5 -3.4 32 6.2 W 26 39 14 21 1014.0 1014.0 0.0
19/03:30am 13.3 4.8 -3.4 31 6.4 W 32 41 17 22 1014.0 1014.0 0.0
19/03:06am 13.5 4.8 -3.7 30 6.6 W 33 52 18 28 1013.9 1013.9 0.0
19/03:00am 13.9 4.8 -3.8 29 6.8 W 35 52 19 28 1014.0 1014.0 0.0
19/02:30am 14.1 5.0 -3.6 29 6.8 WSW 35 54 19 29 1014.0 1014.0 0.0
19/02:14am 14.3 5.2 -3.5 29 6.9 W 35 54 19 29 1014.1 1014.1 0.0
19/02:00am 14.7 5.2 -3.6 28 7.1 WSW 37 52 20 28 1014.1 1014.1 0.0
19/01:34am 14.5 5.9 -3.8 28 7.1 WSW 32 50 17 27 1014.3 1014.3 0.0
19/01:30am 14.7 5.6 -3.6 28 7.1 WSW 35 50 19 27 1014.2 1014.2 0.0
19/01:19am 14.9 6.3 -3.9 27 7.3 WSW 32 52 17 28 1014.3 1014.3 0.0
19/01:00am 15.0 6.5 -3.3 28 7.2 W 32 46 17 25 1014.4 1014.4 0.0
19/12:33am 15.3 5.8 -3.6 27 7.4 WSW 37 57 20 31 1014.7 1014.7 0.0
19/12:30am 15.5 6.4 -3.4 27 7.4 WSW 35 50 19 27 1014.7 1014.7 0.0
19/12:16am 15.2 6.7 -3.2 28 7.3 WSW 32 50 17 27 1014.7 1014.7 0.0
19/12:00am 15.6 7.1 -3.3 27 7.5 WSW 32 43 17 23 1014.9 1014.9 0.0
 
Date/Time
EST
Temp
°C
App
Temp
°C
Dew
Point
°C
Rel
Hum
%
Delta-T
°C
Wind Press
QNH
hPa
Press
MSL
hPa
Rain since
9am
mm
Dir  Spd
km/h
Gust
km/h
Spd
kts
Gust
kts
18/11:36pm 15.8 7.7 -3.1 27 7.5 WSW 30 50 16 27 1014.8 1014.8 0.0
18/11:30pm 15.5 7.8 -2.9 28 7.3 WSW 28 41 15 22 1014.9 1014.9 0.0
18/11:00pm 15.8 9.6 -3.1 27 7.5 WSW 20 30 11 16 1015.0 1015.0 0.0
18/10:30pm 16.6 8.9 -3.0 26 7.9 W 28 43 15 23 1014.8 1014.8 0.0
18/10:00pm 16.2 8.5 -3.3 26 7.8 W 28 37 15 20 1014.6 1014.6 0.0
18/09:30pm 16.3 8.2 -3.2 26 7.8 W 30 39 16 21 1014.6 1014.6 0.0
18/09:01pm 17.0 9.3 -2.6 26 8.0 W 28 46 15 25 1014.4 1014.4 0.0
18/09:00pm 16.8 9.5 -2.8 26 7.9 W 26 37 14 20 1014.4 1014.4 0.0
18/08:30pm 17.2 9.1 -3.0 25 8.2 W 30 44 16 24 1014.3 1014.3 0.0
18/08:00pm 17.8 11.2 -3.0 24 8.5 W 22 35 12 19 1013.9 1013.9 0.0
18/07:30pm 18.3 10.1 -3.8 22 8.9 W 30 52 16 28 1013.4 1013.4 0.0
18/07:16pm 18.7 10.2 -3.4 22 9.0 W 32 50 17 27 1013.1 1013.1 0.0
18/07:00pm 18.8 10.3 -3.3 22 9.0 W 32 46 17 25 1012.7 1012.7 0.0
18/06:31pm 18.8 9.7 -3.3 22 9.0 W 35 54 19 29 1012.2 1012.2 0.0
18/06:30pm 18.9 9.4 -3.9 21 9.2 W 37 54 20 29 1012.2 1012.2 0.0
18/06:12pm 19.6 11.5 -3.3 21 9.4 W 30 48 16 26 1011.9 1011.9 0.0
18/06:00pm 19.5 10.4 -3.4 21 9.4 W 35 48 19 26 1011.7 1011.7 0.0
18/05:30pm 19.9 11.4 -3.7 20 9.7 W 32 48 17 26 1011.1 1011.1 0.0
18/05:01pm 21.1 12.3 -4.1 18 10.4 W 33 52 18 28 1010.7 1010.7 0.0
18/05:00pm 20.9 12.1 -4.3 18 10.3 W 33 50 18 27 1010.7 1010.7 0.0
18/04:30pm 22.3 13.6 -5.6 15 11.3 W 32 50 17 27 1010.1 1010.1 0.0
18/04:01pm 23.0 14.0 -5.9 14 11.7 W 33 57 18 31 1009.7 1009.7 0.0
18/04:00pm 23.1 14.4 -4.9 15 11.6 W 32 48 17 26 1009.8 1009.8 0.0
18/03:33pm 23.7 13.6 -6.3 13 12.1 W 39 59 21 32 1009.3 1009.3 0.0
18/03:30pm 23.8 13.3 -6.2 13 12.1 W 41 54 22 29 1009.4 1009.4 0.0
18/03:07pm 24.4 14.4 -4.8 14 12.2 W 39 57 21 31 1009.3 1009.3 0.0
18/03:00pm 24.2 13.2 -7.0 12 12.5 W 43 57 23 31 1009.3 1009.3 0.0
18/02:30pm 24.6 13.8 -5.6 13 12.5 W 43 69 23 37 1009.1 1009.1 0.0
18/02:00pm 24.9 13.6 -4.4 14 12.4 W 46 72 25 39 1009.0 1009.0 0.0
18/01:30pm 24.9 13.0 -6.4 12 12.8 W 48 69 26 37 1009.3 1009.3 0.0
18/01:00pm 24.9 14.0 -4.4 14 12.4 W 44 65 24 35 1009.5 1009.5 0.0
18/12:39pm 24.9 14.9 -4.4 14 12.4 W 39 65 21 35 1009.6 1009.6 0.0
18/12:30pm 24.9 15.3 -1.8 17 11.9 W 39 56 21 30 1009.7 1009.7 0.0
18/12:00pm 25.0 14.9 -2.5 16 12.1 W 41 59 22 32 1010.1 1010.1 0.0
18/11:30am 24.4 15.4 -3.0 16 11.9 WNW 35 56 19 30 1010.7 1010.7 0.0
18/11:09am 24.0 16.4 -2.5 17 11.5 WNW 28 46 15 25 1011.2 1011.2 0.0
18/11:00am 24.2 17.7 0.5 21 10.9 WNW 24 37 13 20 1011.3 1011.3 0.0
18/10:36am 23.4 15.4 -2.2 18 11.1 W 30 50 16 27 1012.1 1012.1 0.0
18/10:30am 23.5 15.3 -0.7 20 10.9 WNW 32 43 17 23 1012.1 1012.1 0.0
18/10:04am 22.8 14.9 -1.3 20 10.6 W 30 50 16 27 1012.4 1012.4 0.0
18/10:00am 22.4 14.6 -1.0 21 10.3 WNW 30 43 16 23 1012.5 1012.5 0.0
18/09:30am 22.1 15.9 -0.6 22 10.1 W 22 39 12 21 1013.0 1013.0 0.0
18/09:00am 21.5 15.1 -1.7 21 10.0 WNW 22 32 12 17 1013.2 1013.2 0.0
18/08:30am 21.1 15.9 -0.2 24 9.5 WNW 17 28 9 15 1013.3 1013.3 0.0
18/08:00am 17.4 13.0 4.7 43 6.0 NNW 17 20 9 11 1013.3 1013.3 0.0
18/07:30am 15.9 11.6 3.0 42 5.9 NW 15 20 8 11 1013.1 1013.1 0.0
18/07:00am 13.5 10.2 2.4 47 4.9 NW 9 15 5 8 1012.9 1012.9 0.0
18/06:30am 14.1 9.2 2.0 44 5.3 NW 17 24 9 13 1012.6 1012.6 0.0
18/06:00am 10.4 6.3 2.0 56 3.5 NNW 13 17 7 9 1012.5 1012.5 0.0
18/05:30am 11.1 9.4 3.9 61 3.2 NNW 2 9 1 5 1012.3 1012.3 0.0
18/05:00am 7.5 6.4 5.3 86 1.0 CALM 0 0 0 0 1011.9 1011.9 0.0
18/04:30am 4.6 3.0 2.3 85 0.9 CALM 0 0 0 0 1011.8 1011.8 0.0
18/04:00am 5.3 3.7 2.3 81 1.2 CALM 0 0 0 0 1011.6 1011.6 0.0
18/03:30am 7.0 5.7 4.0 81 1.3 CALM 0 0 0 0 1011.4 1011.4 0.0
18/03:00am 7.3 4.8 4.6 83 1.2 N 7 11 4 6 1011.5 1011.5 0.0
18/02:30am 8.3 5.9 5.1 80 1.4 N 7 9 4 5 1011.5 1011.5 0.0
18/02:00am 10.7 9.8 6.1 73 2.1 CALM 0 7 0 4 1011.6 1011.6 0.0
18/01:30am 7.8 5.5 4.7 81 1.4 N 6 9 3 5 1011.6 1011.6 0.0
18/01:00am 8.1 5.5 4.1 76 1.7 N 7 11 4 6 1011.7 1011.7 0.0
18/12:30am 10.7 9.1 4.4 65 2.8 NNE 2 13 1 7 1011.6 1011.6 0.0
18/12:00am 11.1 9.8 4.1 62 3.1 CALM 0 0 0 0 1011.7 1011.7 0.0
 
Date/Time
EST
Temp
°C
App
Temp
°C
Dew
Point
°C
Rel
Hum
%
Delta-T
°C
Wind Press
QNH
hPa
Press
MSL
hPa
Rain since
9am
mm
Dir  Spd
km/h
Gust
km/h
Spd
kts
Gust
kts
17/11:30pm 11.6 8.3 4.6 62 3.2 NNW 11 13 6 7 1011.9 1011.9 0.0
17/11:17pm 13.5 10.2 4.6 55 4.1 NNW 11 13 6 7 1012.0 1012.0 0.0
17/11:00pm 18.5 13.7 2.8 35 7.2 W 17 24 9 13 1012.1 1012.1 0.0
17/10:30pm 18.8 14.1 3.0 35 7.3 WSW 17 22 9 12 1012.0 1012.0 0.0
17/10:00pm 19.6 16.3 2.5 32 7.9 SW 9 19 5 10 1012.0 1012.0 0.0
17/09:30pm 21.6 15.9 2.8 29 8.9 WSW 22 32 12 17 1011.6 1011.6 0.0
17/09:00pm 22.1 15.6 2.8 28 9.2 WSW 26 33 14 18 1011.5 1011.5 0.0
17/08:30pm 23.1 16.7 3.1 27 9.6 WSW 26 35 14 19 1011.2 1011.2 0.0
17/08:00pm 23.6 16.9 3.5 27 9.8 WSW 28 44 15 24 1010.9 1010.9 0.0

Other Formats:

Comma delimited format used in spreadsheet applications
http://www.bom.gov.au/fwo/IDN60801/IDN60801.94572.axf

JavaScript Object Notation format (JSON) in row-major order
http://www.bom.gov.au/fwo/IDN60801/IDN60801.94572.json